Spencer, WI

1:05 PM CST on January 30, 2015 (GMT -0600)
Taylor County | Change Station
CLOSE
Current Station
Airport
Location: Medford,
Elevation: 1470 ft
Nearby Weather Stations

Elev 1470 ft 45.10 °N, 90.30 °W | Updated 10 minutes ago

Mostly Cloudy
Mostly Cloudy
14 °F
Feels Like 4 °F
N
7
Wind Variable Wind from SW

Today
High -- | Low -- °F
--% Chance of Precip.
Yesterday
High -- | Low -- °F
Precip. -- in
7:22 AM 5:06 PM
Waxing Gibbous, 84% visible
Pressure 30.39 in
Visibility 10.0 miles
Clouds Scattered Clouds 5000 ft
Scattered Clouds 6500 ft
Mostly Cloudy 12000 ft
Windchill 4 °F
Dew Point 4 °F
Humidity 66%
Rainfall 0.00 in
Snow Depth Not available.
UV 1 out of 12
Pollen .10 out of 12
Air Quality Not available.
Flu Activity Not available.
METAR KMDZ 301855Z AUTO 22006KT 10SM SCT050 SCT065 BKN120 M10/M15 A3039 RMK AO2 T11011153

More Conditions Fewer Conditions

Pressure 30.39 in
Visibility 10.0 miles
Clouds Scattered Clouds 5000 ft
Scattered Clouds 6500 ft
Mostly Cloudy 12000 ft
Windchill 4 °F
Dew Point 4 °F
Humidity 66%
Rainfall 0.00 in
Snow Depth Not available.
UV 1 out of 12
Pollen .10 out of 12
Air Quality Not available.
Flu Activity Not available.
METAR KMDZ 301855Z AUTO 22006KT 10SM SCT050 SCT065 BKN120 M10/M15 A3039 RMK AO2 T11011153

More Conditions Fewer Conditions

10-Day Weather Forecast

Almanac

Astronomy

Jan. 30, 2015 Rise Set
Actual Time
Civil Twilight
Nautical Twilight
Astronomical Twilight
Moon
Length of Visible Light
Length of Day
Tomorrow will be .
, % of the Moon is Illuminated

Today's Extremes

State Highs State Lows

Community

WunderPhotos

Upload Photos

1,791,866 photos uploaded!

WunderBlogs® & News

Nearby

Air Quality

  Air Quality AQ Index Pollutant
Not available.

Snow Depth

Station Depth Elevation

Earthquake Activity

City Distance Mag. Time & Date
Minimum magnitude displayed is 2.5.

Coastal Water Temperatures

Place Temperature

Nearby Weather Stations